Time;durP1;ratioP1;P1;durP2;ratioP2;P2;SDS_P1;SDS_P2;PMS_P1;PMS_P2;Temp;Humidity;BMP_temperature;BMP_pressure;BME280_temperature;BME280_humidity;BME280_pressure;Samples;Min_cycle;Max_cycle;Signal;HPM_P1;HPM_P2
2021/12/13 00:00:50;;;;;;;23.40;15.97;;;4.40;99.90;;;;;;4989811;28;20205;-52
2021/12/13 00:03:16;;;;;;;16.50;13.13;;;4.40;99.90;;;;;;4963037;28;20669;-48
2021/12/13 00:05:44;;;;;;;17.20;14.17;;;4.40;99.90;;;;;;4989658;28;20181;-52
2021/12/13 00:08:17;;;;;;;19.27;15.93;;;4.40;99.90;;;;;;4989870;28;20264;-55
2021/12/13 00:10:50;;;;;;;20.53;15.47;;;4.30;99.90;;;;;;4992833;28;20674;-52
2021/12/13 00:13:23;;;;;;;15.70;13.77;;;4.20;99.90;;;;;;4993736;28;20712;-52
2021/12/13 00:16:00;;;;;;;24.43;16.47;;;4.20;99.90;;;;;;4993154;28;20577;-53
2021/12/13 00:18:32;;;;;;;15.87;13.40;;;4.20;99.90;;;;;;4993525;28;20247;-54
2021/12/13 00:21:07;;;;;;;16.73;13.10;;;4.30;99.90;;;;;;4977103;28;20251;-52
2021/12/13 00:24:01;;;;;;;16.87;13.47;;;4.30;99.90;;;;;;4993555;28;20665;-50
2021/12/13 00:26:34;;;;;;;15.87;14.10;;;4.30;99.90;;;;;;4993088;28;20188;-51
2021/12/13 00:29:09;;;;;;;17.47;13.93;;;4.40;99.90;;;;;;4993455;28;20192;-48
2021/12/13 00:31:50;;;;;;;15.73;13.43;;;4.40;99.90;;;;;;4993355;28;20224;-54
2021/12/13 00:34:38;;;;;;;17.00;14.53;;;4.40;99.90;;;;;;5006036;28;20175;-51
2021/12/13 00:37:14;;;;;;;15.47;13.80;;;4.40;99.90;;;;;;5054647;28;20198;-53
2021/12/13 00:39:49;;;;;;;25.17;14.83;;;4.40;99.90;;;;;;5054711;28;20590;-48
2021/12/13 00:42:15;;;;;;;15.10;13.50;;;4.40;99.90;;;;;;5054726;28;20155;-53
2021/12/13 00:44:52;;;;;;;16.47;14.40;;;4.50;99.90;;;;;;5054375;28;20175;-53
2021/12/13 00:47:28;;;;;;;16.47;13.80;;;4.50;99.90;;;;;;5054521;28;20678;-52
2021/12/13 00:50:15;;;;;;;16.20;14.03;;;4.40;99.90;;;;;;5054879;28;20667;-52
2021/12/13 00:52:43;;;;;;;15.30;13.67;;;4.40;99.90;;;;;;5054642;28;20167;-49
2021/12/13 00:55:16;;;;;;;15.40;13.47;;;4.50;99.90;;;;;;5054130;28;20670;-48
2021/12/13 00:58:06;;;;;;;14.93;12.90;;;4.50;99.90;;;;;;5054430;28;20586;-48
2021/12/13 01:00:53;;;;;;;14.63;12.30;;;4.50;99.90;;;;;;5053943;28;20222;-47
2021/12/13 01:03:21;;;;;;;15.63;13.93;;;4.40;99.90;;;;;;5054188;28;20262;-49
2021/12/13 01:05:56;;;;;;;15.57;13.60;;;4.40;99.90;;;;;;5054032;28;20168;-46
2021/12/13 01:08:40;;;;;;;15.27;12.90;;;4.50;99.90;;;;;;5054331;28;20221;-47
2021/12/13 01:11:38;;;;;;;16.73;13.80;;;4.70;99.90;;;;;;5053850;28;20210;-46
2021/12/13 01:14:35;;;;;;;16.20;13.30;;;4.70;99.90;;;;;;5090098;22;20246;-54
2021/12/13 01:17:15;;;;;;;15.77;13.30;;;4.80;99.90;;;;;;5008958;28;20223;-48
2021/12/13 01:19:57;;;;;;;16.90;14.00;;;4.50;99.90;;;;;;5013685;28;20200;-53
2021/12/13 01:22:52;;;;;;;15.83;13.03;;;4.30;99.90;;;;;;5014165;28;20734;-51
2021/12/13 01:25:46;;;;;;;18.17;14.40;;;4.20;99.90;;;;;;4994020;28;20165;-49
2021/12/13 01:28:19;;;;;;;16.33;13.73;;;4.10;99.90;;;;;;4994500;28;20173;-52
2021/12/13 01:30:53;;;;;;;16.73;14.07;;;3.90;99.90;;;;;;4994200;28;20305;-50
2021/12/13 01:33:21;;;;;;;18.43;14.37;;;3.60;99.90;;;;;;4994256;28;20200;-48
2021/12/13 01:35:52;;;;;;;17.27;14.03;;;3.60;99.90;;;;;;4993983;28;20242;-48
2021/12/13 01:38:32;;;;;;;17.23;15.13;;;3.70;99.90;;;;;;4994196;28;20185;-52
2021/12/13 01:41:11;;;;;;;16.07;13.27;;;3.60;99.90;;;;;;4994128;28;20145;-50
2021/12/13 01:43:42;;;;;;;18.80;14.37;;;3.70;99.90;;;;;;4994190;28;20197;-50
2021/12/13 01:46:09;;;;;;;16.97;13.93;;;3.70;99.90;;;;;;4993842;28;20779;-47
2021/12/13 01:48:40;;;;;;;19.03;14.77;;;3.60;99.90;;;;;;5006776;28;20183;-53
2021/12/13 01:51:11;;;;;;;16.57;14.13;;;3.80;99.90;;;;;;4994011;28;20169;-50
2021/12/13 01:53:45;;;;;;;14.50;12.10;;;3.90;99.90;;;;;;4993955;28;20193;-50
2021/12/13 01:59:42;;;;;;;13.77;12.23;;;3.90;99.90;;;;;;4994300;28;20160;-50
2021/12/13 02:02:14;;;;;;;14.40;12.40;;;3.80;99.90;;;;;;4993871;28;20156;-51
2021/12/13 02:04:40;;;;;;;18.80;12.57;;;3.60;99.90;;;;;;4993403;28;20193;-53
2021/12/13 02:07:08;;;;;;;14.20;12.17;;;3.50;99.90;;;;;;4993711;28;20184;-49
2021/12/13 02:09:41;;;;;;;14.23;12.67;;;3.50;99.90;;;;;;4993736;28;20247;-52
2021/12/13 02:12:13;;;;;;;15.83;12.67;;;3.50;99.90;;;;;;4993703;28;20177;-50
2021/12/13 02:14:47;;;;;;;14.73;12.67;;;3.50;99.90;;;;;;4993277;28;20216;-47
2021/12/13 02:17:19;;;;;;;16.10;13.60;;;3.50;99.90;;;;;;4992284;28;20193;-50
2021/12/13 02:20:05;;;;;;;15.77;12.73;;;3.60;99.90;;;;;;4993480;28;20177;-52
2021/12/13 02:22:43;;;;;;;16.00;12.67;;;3.70;99.90;;;;;;4993058;28;20268;-50
2021/12/13 02:25:24;;;;;;;14.80;12.40;;;3.70;99.90;;;;;;4992962;28;20203;-48
2021/12/13 02:28:01;;;;;;;15.40;12.80;;;3.70;99.90;;;;;;4993263;28;20211;-47
2021/12/13 02:30:35;;;;;;;15.53;12.70;;;3.70;99.90;;;;;;4993323;28;20180;-47
2021/12/13 02:33:02;;;;;;;15.80;12.40;;;3.80;99.90;;;;;;4992567;28;20186;-47
2021/12/13 02:35:31;;;;;;;16.40;12.63;;;3.70;99.90;;;;;;4992988;28;20220;-49
2021/12/13 02:37:59;;;;;;;14.93;12.20;;;3.70;99.90;;;;;;4993056;28;20203;-46
2021/12/13 02:40:25;;;;;;;16.00;13.13;;;3.60;99.90;;;;;;4992977;28;20639;-48
2021/12/13 02:42:51;;;;;;;15.03;12.67;;;3.50;99.90;;;;;;4993222;28;20549;-48
2021/12/13 02:45:42;;;;;;;14.60;12.37;;;3.50;99.90;;;;;;4992707;28;20174;-48
2021/12/13 02:48:14;;;;;;;16.97;12.93;;;3.50;99.90;;;;;;4992984;28;20207;-47
2021/12/13 02:50:58;;;;;;;14.60;12.60;;;3.60;99.90;;;;;;4992937;28;20177;-47
2021/12/13 02:53:36;;;;;;;14.53;11.87;;;3.60;99.90;;;;;;4992665;28;20247;-48
2021/12/13 02:56:02;;;;;;;17.23;13.00;;;3.60;99.90;;;;;;4992642;28;20646;-52
2021/12/13 02:58:31;;;;;;;16.03;11.70;;;3.60;99.90;;;;;;4992804;28;20184;-47
2021/12/13 03:01:12;;;;;;;16.47;13.30;;;3.50;99.90;;;;;;4992438;28;20181;-47
2021/12/13 03:03:42;;;;;;;15.77;13.20;;;3.50;99.90;;;;;;4992640;28;20193;-51
2021/12/13 03:06:10;;;;;;;16.33;12.13;;;3.40;99.90;;;;;;4991150;28;20176;-47
2021/12/13 03:08:42;;;;;;;15.83;11.90;;;3.40;99.90;;;;;;4992474;28;20175;-47
2021/12/13 03:11:22;;;;;;;15.70;11.57;;;3.40;99.90;;;;;;4992358;28;20239;-51
2021/12/13 03:13:58;;;;;;;15.77;12.43;;;3.50;99.90;;;;;;4992422;28;20240;-49
2021/12/13 03:16:29;;;;;;;14.80;11.60;;;3.50;99.90;;;;;;4992120;28;20254;-47
2021/12/13 03:19:02;;;;;;;17.13;12.43;;;3.40;99.90;;;;;;4992302;28;20169;-47
2021/12/13 03:21:49;;;;;;;14.93;10.93;;;3.40;99.90;;;;;;4992429;28;20154;-47
2021/12/13 03:24:21;;;;;;;14.30;11.13;;;3.40;99.90;;;;;;4991063;28;20192;-48
2021/12/13 03:26:59;;;;;;;14.20;11.20;;;3.40;99.90;;;;;;4992212;28;20646;-46
2021/12/13 03:29:57;;;;;;;16.00;11.63;;;3.30;99.90;;;;;;4992525;28;20173;-49
2021/12/13 03:32:24;;;;;;;14.73;12.03;;;3.20;99.90;;;;;;4980529;28;20749;-47
2021/12/13 03:35:03;;;;;;;14.97;11.73;;;3.20;99.90;;;;;;4991994;28;20199;-47
2021/12/13 03:37:29;;;;;;;18.33;11.47;;;3.20;99.90;;;;;;4992392;28;20201;-47
2021/12/13 03:39:59;;;;;;;16.40;12.07;;;3.10;99.90;;;;;;4992267;28;20244;-47
2021/12/13 03:42:36;;;;;;;16.27;13.03;;;3.10;99.90;;;;;;4992316;28;20166;-47
2021/12/13 03:45:11;;;;;;;15.70;12.17;;;3.10;99.90;;;;;;4994084;28;20188;-47
2021/12/13 03:47:44;;;;;;;14.80;11.43;;;3.10;99.90;;;;;;4996276;28;20561;-48
2021/12/13 03:50:17;;;;;;;15.87;12.07;;;3.10;99.90;;;;;;4996402;28;20212;-46
2021/12/13 03:52:48;;;;;;;15.87;11.77;;;3.10;99.90;;;;;;4996488;28;20240;-49
2021/12/13 03:55:18;;;;;;;18.80;11.87;;;3.10;99.90;;;;;;5011006;28;20558;-48
2021/12/13 03:57:49;;;;;;;13.07;10.43;;;3.20;99.90;;;;;;4996054;28;20204;-49
2021/12/13 04:00:33;;;;;;;14.23;11.30;;;3.30;99.90;;;;;;4996107;28;20154;-49
2021/12/13 04:03:01;;;;;;;12.50;10.13;;;3.50;99.90;;;;;;4996131;28;20158;-48
2021/12/13 04:05:28;;;;;;;15.23;11.27;;;3.50;99.90;;;;;;4995802;28;20169;-47
2021/12/13 04:07:58;;;;;;;12.83;10.13;;;3.50;99.90;;;;;;4995825;28;20232;-49
2021/12/13 04:10:28;;;;;;;13.73;11.00;;;3.40;99.90;;;;;;4995910;28;20187;-50
2021/12/13 04:12:58;;;;;;;12.50;10.23;;;3.40;99.90;;;;;;4995631;28;20193;-48
2021/12/13 04:15:58;;;;;;;13.20;10.50;;;3.30;99.90;;;;;;4995514;28;20161;-48
2021/12/13 04:18:41;;;;;;;12.87;10.07;;;3.40;99.90;;;;;;4995711;28;20288;-47
2021/12/13 04:21:09;;;;;;;14.53;10.93;;;3.40;99.90;;;;;;4995795;28;20244;-49
2021/12/13 04:23:36;;;;;;;12.33;10.40;;;3.40;99.90;;;;;;4995808;28;20189;-47
2021/12/13 04:26:04;;;;;;;14.40;10.97;;;3.40;99.90;;;;;;4995447;28;20184;-47
2021/12/13 04:28:34;;;;;;;14.43;12.10;;;3.40;99.90;;;;;;4995684;28;20204;-48
2021/12/13 04:31:05;;;;;;;17.27;12.50;;;3.30;99.90;;;;;;5010391;28;20170;-47
2021/12/13 04:33:34;;;;;;;20.93;11.87;;;3.20;99.90;;;;;;5010685;28;20726;-47
2021/12/13 04:36:22;;;;;;;15.70;12.50;;;3.00;99.90;;;;;;4995212;28;20565;-48
2021/12/13 04:39:13;;;;;;;15.10;11.93;;;3.00;99.90;;;;;;4995421;28;20759;-48
2021/12/13 04:41:46;;;;;;;14.30;11.37;;;3.10;99.90;;;;;;4995406;28;20162;-49
2021/12/13 04:44:34;;;;;;;22.50;13.40;;;3.10;99.90;;;;;;4995312;28;20193;-48
2021/12/13 04:47:07;;;;;;;16.73;12.43;;;3.20;99.90;;;;;;4995066;28;20169;-46
2021/12/13 04:49:36;;;;;;;15.90;13.03;;;3.10;99.90;;;;;;4994141;28;20182;-47
2021/12/13 04:52:06;;;;;;;23.30;12.63;;;3.10;99.90;;;;;;4995170;28;20169;-46
2021/12/13 04:54:34;;;;;;;15.40;11.53;;;3.10;99.90;;;;;;5009890;28;20206;-47
2021/12/13 04:57:00;;;;;;;26.20;11.90;;;3.10;99.90;;;;;;4994627;28;20203;-51
2021/12/13 04:59:28;;;;;;;15.40;11.67;;;3.20;99.90;;;;;;4995042;28;20173;-47
2021/12/13 05:01:58;;;;;;;19.63;11.90;;;3.20;99.90;;;;;;4994885;28;20173;-52
2021/12/13 05:04:26;;;;;;;18.87;12.13;;;3.20;99.90;;;;;;4995010;28;20858;-49
2021/12/13 05:06:53;;;;;;;16.97;11.90;;;3.20;99.90;;;;;;4994595;28;20252;-48
2021/12/13 05:09:20;;;;;;;15.20;11.83;;;3.20;99.90;;;;;;4993867;28;20169;-48
2021/12/13 05:12:16;;;;;;;14.23;11.13;;;3.20;99.90;;;;;;5009662;28;20177;-52
2021/12/13 05:14:51;;;;;;;15.17;11.23;;;3.20;99.90;;;;;;4987850;28;20279;-47
2021/12/13 05:17:27;;;;;;;17.00;11.73;;;3.20;99.90;;;;;;4994621;28;20203;-47
2021/12/13 05:20:14;;;;;;;17.67;12.53;;;3.20;99.90;;;;;;4994663;28;20172;-51
2021/12/13 05:22:53;;;;;;;15.90;12.30;;;3.20;99.90;;;;;;4994109;28;20169;-49
2021/12/13 05:25:30;;;;;;;21.90;12.13;;;3.20;99.90;;;;;;4994237;28;20570;-51
2021/12/13 05:28:14;;;;;;;13.60;11.13;;;3.20;99.90;;;;;;4994536;28;20243;-48
2021/12/13 05:31:00;;;;;;;14.53;11.50;;;3.20;99.90;;;;;;4994773;28;20526;-51
2021/12/13 05:33:31;;;;;;;15.40;11.47;;;3.20;99.90;;;;;;4994483;28;20232;-48
2021/12/13 05:36:01;;;;;;;15.03;11.63;;;3.30;99.90;;;;;;4994119;28;20562;-49
2021/12/13 05:38:35;;;;;;;16.00;12.03;;;3.40;99.90;;;;;;4994160;28;20666;-53
2021/12/13 05:41:05;;;;;;;20.90;12.13;;;3.40;99.90;;;;;;4994124;28;20526;-48
2021/12/13 05:43:39;;;;;;;24.27;12.57;;;3.40;99.90;;;;;;4992804;28;20708;-49
2021/12/13 05:46:06;;;;;;;40.30;12.23;;;3.30;99.90;;;;;;4993592;28;20177;-49
2021/12/13 05:48:34;;;;;;;17.60;11.77;;;3.30;99.90;;;;;;4993737;28;20268;-47
2021/12/13 05:51:03;;;;;;;27.17;11.87;;;3.20;99.90;;;;;;4993926;28;20204;-47
2021/12/13 05:53:37;;;;;;;20.63;11.67;;;3.20;99.90;;;;;;4993946;28;20200;-54
2021/12/13 05:56:13;;;;;;;32.10;12.53;;;3.10;99.90;;;;;;4993625;28;20162;-49
2021/12/13 05:58:41;;;;;;;15.90;11.43;;;3.10;99.90;;;;;;4993856;28;20173;-49
2021/12/13 06:01:16;;;;;;;14.93;11.33;;;3.00;99.90;;;;;;4993635;28;20169;-47
2021/12/13 06:04:07;;;;;;;25.53;12.27;;;3.00;99.90;;;;;;4993606;28;20673;-48
2021/12/13 06:06:44;;;;;;;18.77;11.07;;;3.20;99.90;;;;;;4992707;28;20253;-53
2021/12/13 06:09:30;;;;;;;17.90;10.83;;;3.20;99.90;;;;;;4993642;28;20173;-49
2021/12/13 06:12:08;;;;;;;18.97;11.10;;;3.20;99.90;;;;;;4993243;28;20195;-50
2021/12/13 06:14:34;;;;;;;13.53;10.33;;;3.20;99.90;;;;;;4993263;28;20219;-53
2021/12/13 06:17:25;;;;;;;17.80;10.73;;;3.10;99.90;;;;;;4993245;28;20209;-48
2021/12/13 06:19:59;;;;;;;15.20;10.63;;;3.10;99.90;;;;;;4993267;28;20637;-48
2021/12/13 06:22:28;;;;;;;13.93;10.13;;;3.10;99.90;;;;;;4993414;28;20169;-47
2021/12/13 06:25:23;;;;;;;24.87;10.57;;;3.10;99.90;;;;;;4992966;28;20566;-49
2021/12/13 06:27:50;;;;;;;20.33;11.47;;;3.30;99.90;;;;;;4992214;28;20200;-48
2021/12/13 06:30:34;;;;;;;23.30;9.67;;;3.30;99.90;;;;;;4993066;28;20205;-50
2021/12/13 06:33:04;;;;;;;13.53;10.13;;;3.30;99.90;;;;;;4993222;28;20170;-49
2021/12/13 06:35:44;;;;;;;12.80;9.80;;;3.30;99.90;;;;;;4992854;28;20201;-49
2021/12/13 06:38:19;;;;;;;13.40;10.07;;;3.30;99.90;;;;;;4993025;28;20654;-48
2021/12/13 06:41:13;;;;;;;14.93;9.90;;;3.30;99.90;;;;;;4989538;28;20267;-48
2021/12/13 06:43:48;;;;;;;15.43;9.40;;;3.30;99.90;;;;;;4990300;28;20764;-47
2021/12/13 06:46:22;;;;;;;14.37;9.77;;;3.40;99.90;;;;;;4987831;28;20188;-50
2021/12/13 06:48:54;;;;;;;12.23;9.37;;;3.40;99.90;;;;;;4988551;28;20211;-50
2021/12/13 06:51:35;;;;;;;13.27;9.93;;;3.40;99.90;;;;;;4996129;28;20264;-49
2021/12/13 06:54:05;;;;;;;12.63;9.70;;;3.40;99.90;;;;;;4992949;28;20235;-49
2021/12/13 06:56:33;;;;;;;16.23;10.60;;;3.40;99.90;;;;;;4992346;28;20291;-47
2021/12/13 06:59:02;;;;;;;15.17;11.10;;;3.50;99.90;;;;;;4991272;28;20185;-53
2021/12/13 07:01:33;;;;;;;13.70;10.00;;;3.50;99.90;;;;;;4989518;28;20243;-50
2021/12/13 07:04:06;;;;;;;15.93;9.87;;;3.60;99.90;;;;;;4988046;28;20690;-52
2021/12/13 07:06:33;;;;;;;16.13;10.67;;;3.70;99.90;;;;;;4991908;28;20220;-52
2021/12/13 07:09:09;;;;;;;12.93;9.87;;;3.70;99.90;;;;;;4992318;28;20181;-52
2021/12/13 07:11:57;;;;;;;19.03;10.87;;;3.70;99.90;;;;;;4991622;28;20189;-45
2021/12/13 07:14:36;;;;;;;12.20;9.60;;;3.80;99.90;;;;;;4987266;28;20671;-50
2021/12/13 07:17:16;;;;;;;19.33;10.10;;;3.90;99.90;;;;;;4976644;28;20289;-49
2021/12/13 07:19:46;;;;;;;15.87;10.37;;;4.00;99.90;;;;;;4984621;28;20185;-51
2021/12/13 07:22:22;;;;;;;13.50;10.17;;;4.10;99.90;;;;;;4995189;28;20643;-51
2021/12/13 07:24:51;;;;;;;13.40;9.90;;;4.10;99.90;;;;;;4981856;28;20242;-50
2021/12/13 07:27:30;;;;;;;15.70;10.93;;;4.20;99.90;;;;;;4981905;28;20203;-52
2021/12/13 07:30:09;;;;;;;24.20;11.03;;;4.30;99.90;;;;;;4991405;28;20173;-48
2021/12/13 07:32:42;;;;;;;15.90;11.37;;;4.40;99.90;;;;;;4992153;28;20574;-50
2021/12/13 07:35:23;;;;;;;63.60;13.37;;;4.30;99.90;;;;;;4991719;28;20673;-50
2021/12/13 07:37:53;;;;;;;63.60;13.47;;;4.40;99.90;;;;;;4991983;28;20208;-49
2021/12/13 07:40:25;;;;;;;51.77;12.40;;;4.40;99.90;;;;;;4992344;28;20223;-52
2021/12/13 07:43:08;;;;;;;17.53;10.73;;;4.40;99.90;;;;;;4992309;28;20262;-49
2021/12/13 07:45:48;;;;;;;40.60;11.87;;;4.50;99.90;;;;;;4992008;28;20216;-50
2021/12/13 07:48:39;;;;;;;32.17;11.30;;;4.50;99.90;;;;;;4992165;28;20173;-48
2021/12/13 07:51:12;;;;;;;19.97;11.13;;;4.50;99.90;;;;;;4991600;28;20631;-52
2021/12/13 07:53:40;;;;;;;103.97;14.87;;;4.40;99.90;;;;;;4991737;28;20228;-53
2021/12/13 07:56:06;;;;;;;49.73;11.47;;;4.30;99.90;;;;;;4991579;28;20257;-46
2021/12/13 07:58:44;;;;;;;18.83;10.50;;;4.30;99.90;;;;;;4991763;28;20211;-51
2021/12/13 08:01:18;;;;;;;13.17;10.13;;;4.20;99.90;;;;;;4991670;28;20173;-49
2021/12/13 08:03:49;;;;;;;25.83;11.00;;;4.30;99.90;;;;;;4991943;28;20252;-51
2021/12/13 08:06:15;;;;;;;16.17;10.63;;;4.30;99.90;;;;;;4991636;28;20216;-47
2021/12/13 08:08:49;;;;;;;19.13;11.20;;;4.10;99.90;;;;;;4991784;28;20173;-49
2021/12/13 08:11:18;;;;;;;16.43;9.70;;;3.90;99.90;;;;;;4992070;28;20284;-48
2021/12/13 08:13:56;;;;;;;12.53;9.17;;;3.90;99.90;;;;;;4991737;28;20240;-53
2021/12/13 08:16:32;;;;;;;14.33;10.57;;;3.90;99.90;;;;;;4991738;28;20165;-51
2021/12/13 08:19:06;;;;;;;16.20;11.23;;;3.90;99.90;;;;;;4991972;28;20256;-49
2021/12/13 08:21:38;;;;;;;19.00;10.93;;;3.90;99.90;;;;;;4992025;28;20172;-46
2021/12/13 08:24:04;;;;;;;24.27;11.80;;;3.90;99.90;;;;;;4991686;28;20558;-50
2021/12/13 08:26:35;;;;;;;18.13;10.13;;;3.90;99.90;;;;;;4990999;28;20197;-51
2021/12/13 08:29:18;;;;;;;13.47;9.80;;;3.80;99.90;;;;;;4991704;28;20169;-50
2021/12/13 08:31:46;;;;;;;12.97;10.00;;;3.80;99.90;;;;;;4994639;28;20169;-49
2021/12/13 08:34:22;;;;;;;13.37;8.93;;;3.80;99.90;;;;;;4994794;28;20190;-47
2021/12/13 08:36:48;;;;;;;21.37;9.97;;;3.90;99.90;;;;;;4994896;28;20295;-49
2021/12/13 08:39:16;;;;;;;13.33;8.97;;;4.00;99.90;;;;;;4995435;28;20172;-48
2021/12/13 08:41:49;;;;;;;17.63;9.47;;;3.90;99.90;;;;;;4994970;28;20180;-49
2021/12/13 08:44:20;;;;;;;17.13;10.00;;;3.80;99.90;;;;;;4993683;28;20201;-48
2021/12/13 08:46:52;;;;;;;12.77;8.33;;;3.70;99.90;;;;;;4994389;28;20554;-48
2021/12/13 08:49:37;;;;;;;29.83;9.93;;;3.60;99.90;;;;;;4994949;28;20184;-49
2021/12/13 08:52:24;;;;;;;27.30;10.37;;;3.60;99.90;;;;;;4994491;28;20686;-53
2021/12/13 08:55:13;;;;;;;20.47;9.83;;;3.60;99.90;;;;;;4994773;28;20204;-51
2021/12/13 08:58:01;;;;;;;44.90;10.80;;;3.50;99.90;;;;;;4994204;28;20217;-52
2021/12/13 09:00:51;;;;;;;12.43;8.97;;;3.60;99.90;;;;;;4994579;28;20205;-49
2021/12/13 09:03:30;;;;;;;16.60;8.50;;;3.60;99.90;;;;;;4994518;28;20693;-50
2021/12/13 09:05:58;;;;;;;29.50;9.00;;;3.60;99.90;;;;;;4994629;28;20165;-52
2021/12/13 09:08:47;;;;;;;22.20;8.30;;;3.70;99.90;;;;;;4994849;28;20184;-51
2021/12/13 09:11:24;;;;;;;15.77;8.03;;;3.60;99.90;;;;;;4994764;28;20215;-47
2021/12/13 09:13:57;;;;;;;13.50;7.50;;;3.60;99.90;;;;;;4994596;28;20209;-50
2021/12/13 09:16:39;;;;;;;15.20;7.90;;;3.50;99.90;;;;;;4994207;28;20184;-48
2021/12/13 09:19:19;;;;;;;17.10;8.63;;;3.50;99.90;;;;;;4994378;28;20169;-52
2021/12/13 09:21:54;;;;;;;16.97;8.07;;;3.50;99.90;;;;;;4994653;28;20515;-46
2021/12/13 09:24:31;;;;;;;18.27;7.77;;;3.60;99.90;;;;;;4994593;28;20201;-48
2021/12/13 09:27:15;;;;;;;45.97;8.93;;;3.60;99.90;;;;;;4994376;28;20599;-50
2021/12/13 09:30:13;;;;;;;29.07;9.07;;;3.50;99.90;;;;;;4994408;28;20713;-47
2021/12/13 09:32:45;;;;;;;15.63;7.90;;;3.60;99.90;;;;;;4992213;28;20193;-47
2021/12/13 09:35:16;;;;;;;20.63;8.17;;;3.60;99.90;;;;;;4984818;28;20200;-46
2021/12/13 09:37:42;;;;;;;47.93;9.17;;;3.70;99.90;;;;;;4994160;28;20279;-45
2021/12/13 09:40:10;;;;;;;39.13;8.40;;;3.50;99.90;;;;;;4994265;28;20542;-47
2021/12/13 09:42:55;;;;;;;34.07;8.70;;;3.50;99.90;;;;;;4994073;28;20209;-46
2021/12/13 09:45:40;;;;;;;33.77;8.50;;;3.40;99.90;;;;;;4993986;28;20717;-47
2021/12/13 09:48:37;;;;;;;13.23;7.47;;;3.40;99.90;;;;;;4994214;28;20701;-46
2021/12/13 09:51:15;;;;;;;43.07;9.07;;;3.40;99.90;;;;;;4992646;28;20283;-49
2021/12/13 09:53:41;;;;;;;27.17;8.10;;;3.50;99.90;;;;;;4993862;28;20212;-46
2021/12/13 09:56:14;;;;;;;12.37;7.60;;;3.50;99.90;;;;;;4989759;28;20193;-48
2021/12/13 09:59:05;;;;;;;22.87;7.60;;;3.50;99.90;;;;;;4992924;28;20205;-48
2021/12/13 10:01:38;;;;;;;20.00;8.47;;;3.60;99.90;;;;;;4993255;28;20165;-47
2021/12/13 10:04:27;;;;;;;13.63;8.13;;;3.50;99.90;;;;;;4993850;28;20251;-48
2021/12/13 10:06:59;;;;;;;11.97;7.70;;;3.60;99.90;;;;;;4930190;29;20218;-45
2021/12/13 10:09:36;;;;;;;11.20;8.30;;;3.70;99.90;;;;;;4940891;29;20201;-48
2021/12/13 10:12:15;;;;;;;10.10;7.13;;;3.90;99.90;;;;;;4945681;29;20406;-49
2021/12/13 10:14:53;;;;;;;22.30;8.53;;;4.00;99.90;;;;;;4946873;29;20608;-47
2021/12/13 10:17:22;;;;;;;39.00;9.33;;;4.00;99.90;;;;;;4951721;29;20244;-47
2021/12/13 10:19:51;;;;;;;10.70;7.57;;;4.00;99.90;;;;;;4950373;29;20178;-47
2021/12/13 10:22:21;;;;;;;10.40;7.73;;;4.10;99.90;;;;;;4952259;29;20318;-47
2021/12/13 10:24:55;;;;;;;12.20;7.73;;;4.20;99.90;;;;;;4942871;29;20213;-50
2021/12/13 10:27:21;;;;;;;11.50;8.20;;;4.40;99.90;;;;;;4936793;29;20195;-49
2021/12/13 10:29:53;;;;;;;11.37;8.13;;;4.60;99.90;;;;;;4931768;29;20191;-55
2021/12/13 10:32:29;;;;;;;13.33;7.93;;;4.80;99.90;;;;;;4932959;29;20616;-47
2021/12/13 10:35:04;;;;;;;11.17;8.10;;;5.10;99.90;;;;;;4932363;29;20735;-48
2021/12/13 10:37:43;;;;;;;9.33;7.00;;;5.30;99.90;;;;;;4932487;29;20214;-47
2021/12/13 10:40:20;;;;;;;9.00;6.53;;;5.40;99.90;;;;;;4932787;29;20187;-52
2021/12/13 10:43:05;;;;;;;11.23;7.13;;;5.50;99.90;;;;;;4951989;28;20775;-50
2021/12/13 10:45:35;;;;;;;9.30;6.97;;;5.70;99.90;;;;;;4999900;28;20190;-51
2021/12/13 10:48:04;;;;;;;9.83;7.20;;;5.70;99.90;;;;;;4992400;28;20177;-49
2021/12/13 10:50:35;;;;;;;9.30;6.80;;;5.70;99.90;;;;;;4992740;28;20216;-48
2021/12/13 10:53:02;;;;;;;9.57;6.43;;;5.80;99.90;;;;;;5010443;28;20239;-47
2021/12/13 10:55:34;;;;;;;10.60;7.30;;;5.90;99.90;;;;;;5012068;28;20184;-48
2021/12/13 10:58:00;;;;;;;10.10;7.33;;;6.00;99.90;;;;;;5011922;28;20208;-52
2021/12/13 11:00:33;;;;;;;8.27;6.43;;;6.10;99.90;;;;;;5011778;28;20228;-51
2021/12/13 11:03:08;;;;;;;8.63;6.57;;;6.20;99.90;;;;;;5011809;28;20531;-47
2021/12/13 11:05:34;;;;;;;15.40;8.27;;;6.30;99.90;;;;;;5011515;28;20230;-49
2021/12/13 11:08:01;;;;;;;9.63;7.47;;;6.40;99.90;;;;;;4993552;28;20190;-48
2021/12/13 11:10:34;;;;;;;40.77;9.93;;;6.40;99.90;;;;;;4972590;28;20177;-48
2021/12/13 11:13:00;;;;;;;11.30;8.03;;;6.40;99.90;;;;;;4971698;28;20189;-52
2021/12/13 11:15:31;;;;;;;11.33;8.23;;;6.40;99.90;;;;;;4986988;28;20549;-47
2021/12/13 11:18:01;;;;;;;9.97;7.67;;;6.30;99.90;;;;;;4983741;28;20202;-52
2021/12/13 11:20:32;;;;;;;30.13;9.83;;;6.20;99.90;;;;;;4986581;28;20177;-48
2021/12/13 11:22:59;;;;;;;13.70;8.47;;;6.10;99.90;;;;;;4989246;28;20185;-49
2021/12/13 11:25:41;;;;;;;11.13;8.87;;;6.10;99.90;;;;;;4978112;28;20174;-53
2021/12/13 11:28:11;;;;;;;10.67;7.70;;;6.00;99.90;;;;;;4989753;28;20185;-53
2021/12/13 11:30:38;;;;;;;12.50;8.73;;;5.90;99.90;;;;;;4992070;28;20184;-48
2021/12/13 11:33:21;;;;;;;12.07;8.63;;;5.90;99.90;;;;;;4992085;28;20181;-53
2021/12/13 11:36:08;;;;;;;13.83;8.20;;;5.80;99.90;;;;;;4992005;28;20173;-50
2021/12/13 11:38:46;;;;;;;23.97;7.90;;;5.60;99.90;;;;;;4991930;28;20212;-48
2021/12/13 11:41:49;;;;;;;13.50;8.50;;;5.30;99.90;;;;;;4992124;28;20204;-49
2021/12/13 11:44:35;;;;;;;55.60;10.03;;;5.20;99.90;;;;;;4991946;28;20658;-49
2021/12/13 11:47:25;;;;;;;12.20;8.50;;;5.10;99.90;;;;;;4992058;28;20260;-48
2021/12/13 11:50:15;;;;;;;97.47;10.97;;;5.10;99.90;;;;;;4992100;28;20543;-50
2021/12/13 11:53:18;;;;;;;21.30;8.40;;;5.20;99.90;;;;;;4991877;28;20215;-50
2021/12/13 11:56:11;;;;;;;9.87;7.20;;;5.30;99.90;;;;;;4991889;28;20187;-48
2021/12/13 11:59:13;;;;;;;13.50;7.50;;;5.20;99.90;;;;;;4991958;28;20824;-49
2021/12/13 12:01:48;;;;;;;9.00;6.63;;;5.20;99.90;;;;;;4991681;28;20223;-48
2021/12/13 12:04:35;;;;;;;11.90;7.37;;;5.20;99.90;;;;;;4991930;28;20189;-52
2021/12/13 12:07:13;;;;;;;12.10;7.10;;;5.10;99.90;;;;;;4990296;28;20181;-49
2021/12/13 12:10:14;;;;;;;9.93;7.03;;;5.10;99.90;;;;;;4974992;28;20188;-48
2021/12/13 12:13:07;;;;;;;10.23;7.33;;;5.00;99.90;;;;;;4979532;28;20771;-50
2021/12/13 12:15:36;;;;;;;12.23;7.30;;;5.00;99.90;;;;;;4983192;28;20185;-52
2021/12/13 12:18:06;;;;;;;9.20;6.70;;;5.10;99.90;;;;;;4982690;28;20205;-54
2021/12/13 12:20:47;;;;;;;8.97;7.30;;;5.20;99.90;;;;;;4984596;28;20757;-52
2021/12/13 12:23:25;;;;;;;7.60;5.80;;;5.40;99.90;;;;;;4988528;28;20193;-52
2021/12/13 12:25:50;;;;;;;8.73;6.53;;;5.50;99.90;;;;;;4986896;28;20188;-50
2021/12/13 12:28:18;;;;;;;8.57;6.33;;;5.60;99.90;;;;;;4984401;28;20174;-51
2021/12/13 12:30:50;;;;;;;6.77;5.57;;;5.70;99.90;;;;;;4983043;28;20186;-50
2021/12/13 12:33:32;;;;;;;6.73;5.30;;;5.80;99.90;;;;;;4990200;28;20215;-53
2021/12/13 12:36:03;;;;;;;7.83;6.20;;;5.90;99.90;;;;;;4991466;28;20623;-47
2021/12/13 12:39:03;;;;;;;8.23;5.90;;;6.10;99.90;;;;;;4993751;28;20209;-51
2021/12/13 12:41:58;;;;;;;8.23;6.07;;;6.20;99.90;;;;;;4993724;28;20234;-52
2021/12/13 12:44:32;;;;;;;8.67;6.57;;;6.10;99.90;;;;;;4993239;28;20189;-52
2021/12/13 12:46:58;;;;;;;8.83;6.60;;;5.90;99.90;;;;;;4993420;28;20176;-49
2021/12/13 12:49:25;;;;;;;9.30;6.87;;;5.70;99.90;;;;;;4993360;28;20255;-49
2021/12/13 12:51:53;;;;;;;9.53;6.57;;;5.70;99.90;;;;;;4994084;28;20173;-52
2021/12/13 12:54:21;;;;;;;8.57;6.63;;;5.60;99.90;;;;;;4994238;28;20193;-49
2021/12/13 12:56:57;;;;;;;8.33;6.60;;;5.60;99.90;;;;;;4993134;28;20208;-52
2021/12/13 12:59:38;;;;;;;9.50;7.37;;;5.60;99.90;;;;;;4991875;28;20659;-48
2021/12/13 13:02:10;;;;;;;9.03;6.37;;;5.40;99.90;;;;;;4993541;28;20169;-51
2021/12/13 13:04:45;;;;;;;17.77;6.93;;;5.20;99.90;;;;;;4993754;28;20196;-49
2021/12/13 13:07:14;;;;;;;7.93;6.37;;;5.20;99.90;;;;;;4993937;28;20177;-52
2021/12/13 13:09:58;;;;;;;7.70;6.00;;;5.20;99.90;;;;;;4993175;28;20184;-53
2021/12/13 13:12:35;;;;;;;8.70;6.80;;;5.30;99.90;;;;;;4993540;28;20641;-53
2021/12/13 13:15:08;;;;;;;9.27;6.50;;;5.50;99.90;;;;;;4993712;28;20209;-47
2021/12/13 13:17:38;;;;;;;8.13;5.87;;;5.50;99.90;;;;;;4994048;28;20200;-49
2021/12/13 13:20:10;;;;;;;9.80;7.07;;;5.50;99.90;;;;;;4994033;28;20542;-48
2021/12/13 13:22:41;;;;;;;7.80;6.10;;;5.40;99.90;;;;;;4994296;28;20181;-51
2021/12/13 13:25:21;;;;;;;8.13;5.90;;;5.20;99.90;;;;;;4992976;28;20185;-48
2021/12/13 13:27:49;;;;;;;7.83;5.80;;;5.10;99.90;;;;;;4992704;28;20181;-48
2021/12/13 13:30:33;;;;;;;8.00;5.77;;;5.10;99.90;;;;;;4993760;28;20273;-47